Time;durP1;ratioP1;P1;durP2;ratioP2;P2;SDS_P1;SDS_P2;PMS_P1;PMS_P2;Temp;Humidity;BMP_temperature;BMP_pressure;BME280_temperature;BME280_humidity;BME280_pressure;Samples;Min_cycle;Max_cycle;Signal;HPM_P1;HPM_P2
2023/10/04 04:22:34;;;;;;;4.97;2.60;;;;;;;9.24;100.00;101475.91;5089281;28;20405;-67
2023/10/04 04:25:00;;;;;;;4.45;2.45;;;;;;;9.25;100.00;101469.59;5087976;28;20036;-69
2023/10/04 04:27:27;;;;;;;6.55;2.80;;;;;;;9.26;100.00;101466.00;5087942;28;20402;-68
2023/10/04 04:29:53;;;;;;;4.38;2.80;;;;;;;9.23;100.00;101471.56;5088005;28;20028;-69
2023/10/04 04:32:26;;;;;;;6.68;3.03;;;;;;;9.22;100.00;101469.88;5087592;28;20086;-69
2023/10/04 04:34:54;;;;;;;4.72;2.38;;;;;;;9.17;100.00;101461.47;5087198;28;20025;-69
2023/10/04 04:37:22;;;;;;;4.20;2.42;;;;;;;9.20;100.00;101463.88;5087867;28;20119;-68
2023/10/04 04:39:47;;;;;;;3.72;2.40;;;;;;;9.13;100.00;101463.56;5087830;28;20032;-69
2023/10/04 04:42:20;;;;;;;2.65;2.08;;;;;;;9.08;100.00;101464.94;5087599;28;20113;-68
2023/10/04 04:44:46;;;;;;;5.78;3.00;;;;;;;9.12;100.00;101461.03;5087554;28;20490;-69
2023/10/04 04:47:12;;;;;;;4.15;2.63;;;;;;;9.09;100.00;101466.63;5088884;28;20032;-69
2023/10/04 04:49:38;;;;;;;6.30;2.78;;;;;;;9.08;100.00;101465.78;5087581;28;20033;-70
2023/10/04 04:52:06;;;;;;;5.95;4.25;;;;;;;9.08;100.00;101464.94;5087728;28;20047;-69
2023/10/04 04:54:33;;;;;;;4.28;2.45;;;;;;;9.00;100.00;101467.41;5087286;28;20044;-69
2023/10/04 04:56:59;;;;;;;7.13;2.60;;;;;;;8.96;100.00;101461.53;5087412;28;20036;-69
2023/10/04 04:59:24;;;;;;;6.15;3.47;;;;;;;8.95;100.00;101468.66;5087480;28;20126;-70
2023/10/04 05:01:52;;;;;;;5.18;2.67;;;;;;;8.92;100.00;101476.03;5088554;28;20413;-69
2023/10/04 05:04:18;;;;;;;4.65;2.17;;;;;;;8.93;100.00;101478.59;5087195;28;20121;-69
2023/10/04 05:06:45;;;;;;;5.65;2.58;;;;;;;8.90;100.00;101472.69;5087205;28;20584;-69
2023/10/04 05:09:10;;;;;;;5.20;2.38;;;;;;;8.89;100.00;101481.63;5088534;28;20064;-69
2023/10/04 05:11:36;;;;;;;3.92;2.53;;;;;;;8.89;100.00;101471.84;5088296;28;20049;-69
2023/10/04 05:14:05;;;;;;;6.63;3.50;;;;;;;8.93;100.00;101475.06;5087021;28;20063;-69
2023/10/04 05:16:30;;;;;;;4.60;2.60;;;;;;;8.89;100.00;101468.34;5088404;28;20036;-69
2023/10/04 05:18:56;;;;;;;5.20;2.90;;;;;;;8.86;100.00;101472.09;5088433;28;20471;-69
2023/10/04 05:21:21;;;;;;;3.97;2.15;;;;;;;8.88;100.00;101479.97;5088243;28;20044;-69
2023/10/04 05:23:47;;;;;;;4.53;2.38;;;;;;;8.85;100.00;101478.38;5088065;28;20034;-69
2023/10/04 05:26:12;;;;;;;7.07;2.50;;;;;;;8.85;100.00;101477.56;5088116;28;20464;-68
2023/10/04 05:28:38;;;;;;;7.32;2.92;;;;;;;8.83;100.00;101483.00;5088255;28;20036;-69
2023/10/04 05:31:04;;;;;;;5.10;3.20;;;;;;;8.84;100.00;101478.53;5088191;28;20116;-69
2023/10/04 05:33:30;;;;;;;4.30;2.70;;;;;;;8.82;100.00;101485.81;5076703;28;20041;-61
2023/10/04 05:35:56;;;;;;;4.13;2.50;;;;;;;8.82;100.00;101476.00;5054750;28;20099;-61
2023/10/04 05:38:23;;;;;;;6.00;2.53;;;;;;;8.80;100.00;101470.00;5054595;28;20044;-62
2023/10/04 05:40:49;;;;;;;4.97;2.15;;;;;;;8.83;100.00;101479.50;5054407;28;20037;-62
2023/10/04 05:43:16;;;;;;;3.47;2.25;;;;;;;8.81;100.00;101484.13;5054281;28;20051;-62
2023/10/04 05:45:43;;;;;;;4.37;2.30;;;;;;;8.83;100.00;101479.50;5054381;28;20107;-61
2023/10/04 05:48:09;;;;;;;5.60;2.88;;;;;;;8.86;100.00;101482.72;5054402;28;20041;-60
2023/10/04 05:50:35;;;;;;;4.70;2.95;;;;;;;8.89;100.00;101479.81;5054217;28;20115;-59
2023/10/04 05:53:05;;;;;;;6.40;2.90;;;;;;;8.93;100.00;101483.03;5053942;28;20037;-62
2023/10/04 05:55:35;;;;;;;5.13;2.70;;;;;;;8.97;100.00;101489.78;5054622;28;20036;-61
2023/10/04 05:58:01;;;;;;;4.05;2.55;;;;;;;9.01;100.00;101485.91;5054201;28;20031;-62
2023/10/04 06:00:27;;;;;;;4.45;2.58;;;;;;;9.06;100.00;101478.34;5054101;28;20048;-61
2023/10/04 06:03:05;;;;;;;5.00;2.72;;;;;;;9.15;100.00;101492.66;5053764;28;20487;-62
2023/10/04 06:05:34;;;;;;;4.78;2.88;;;;;;;9.23;100.00;101487.50;5053953;28;20033;-62
2023/10/04 06:08:03;;;;;;;5.78;2.72;;;;;;;9.31;100.00;101495.66;5054078;28;20040;-62
2023/10/04 06:10:28;;;;;;;5.63;2.50;;;;;;;9.35;100.00;101478.47;5056415;28;20025;-61
2023/10/04 06:12:56;;;;;;;5.45;2.80;;;;;;;9.48;100.00;101494.19;5063405;28;20087;-62
2023/10/04 06:15:22;;;;;;;;;;;;;;;9.58;100.00;101499.50;5061656;28;20036;-62
2023/10/04 06:17:53;;;;;;;4.57;2.00;;;;;;;9.65;100.00;101506.84;5063839;28;20007;-61
2023/10/04 06:20:33;;;;;;;5.13;2.38;;;;;;;9.68;100.00;101501.22;5064119;28;20053;-61
2023/10/04 06:23:06;;;;;;;4.82;2.75;;;;;;;9.75;100.00;101513.00;5063792;28;20037;-62
2023/10/04 06:25:34;;;;;;;3.58;2.20;;;;;;;9.82;100.00;101512.44;5063030;28;20044;-62
2023/10/04 06:28:03;;;;;;;5.75;2.95;;;;;;;9.85;100.00;101513.03;5062355;28;20063;-63
2023/10/04 06:30:32;;;;;;;4.75;2.17;;;;;;;9.89;100.00;101525.06;5062544;28;20220;-61
2023/10/04 06:33:00;;;;;;;4.80;2.60;;;;;;;9.94;100.00;101528.16;5062081;28;20036;-62
2023/10/04 06:35:26;;;;;;;;;;;;;;;9.99;100.00;101527.75;5063294;28;20040;-61
2023/10/04 06:38:13;;;;;;;7.18;2.38;;;;;;;10.04;100.00;101526.38;5063119;28;20338;-61
2023/10/04 06:40:39;;;;;;;4.63;2.20;;;;;;;10.07;100.00;101539.38;5063532;28;20032;-62
2023/10/04 06:43:07;;;;;;;10.13;2.78;;;;;;;10.10;100.00;101529.44;5060380;28;20273;-59
2023/10/04 06:45:35;;;;;;;6.30;2.55;;;;;;;10.16;100.00;101537.69;5060784;28;20044;-62
2023/10/04 06:48:01;;;;;;;7.05;3.53;;;;;;;10.21;100.00;101539.94;5063936;28;20496;-62
2023/10/04 06:50:29;;;;;;;5.38;2.78;;;;;;;10.29;100.00;101540.13;5061846;28;20033;-61
2023/10/04 06:53:01;;;;;;;4.82;2.88;;;;;;;10.32;100.00;101531.88;5062585;28;20487;-62
2023/10/04 06:55:27;;;;;;;5.05;2.80;;;;;;;10.40;100.00;101532.00;5061861;28;20419;-61
2023/10/04 06:57:53;;;;;;;7.28;3.55;;;;;;;10.46;100.00;101534.09;5062785;28;20040;-62
2023/10/04 07:00:22;;;;;;;5.80;3.10;;;;;;;10.52;100.00;101538.88;5061760;28;20041;-59
2023/10/04 07:03:03;;;;;;;7.03;3.03;;;;;;;10.60;100.00;101539.00;5062234;28;20037;-61
2023/10/04 07:05:35;;;;;;;5.00;2.70;;;;;;;10.65;100.00;101530.56;5061963;28;20041;-60
2023/10/04 07:08:01;;;;;;;7.60;3.08;;;;;;;10.81;100.00;101548.63;5062093;28;20384;-61
2023/10/04 07:10:28;;;;;;;7.00;3.35;;;;;;;10.88;100.00;101561.25;5062215;28;20047;-59
2023/10/04 07:12:56;;;;;;;5.95;3.05;;;;;;;11.00;100.00;101558.41;5063193;28;20503;-49
2023/10/04 07:15:24;;;;;;;;;;;;;;;11.11;100.00;101559.09;5062516;28;20087;-49
2023/10/04 07:17:49;;;;;;;;;;;;;;;11.27;100.00;101557.63;5062493;28;19919;-53
2023/10/04 07:20:18;;;;;;;7.18;3.33;;;;;;;11.41;100.00;101559.84;5061546;28;19916;-48
2023/10/04 07:22:58;;;;;;;3.80;2.65;;;;;;;11.55;100.00;101559.34;5063157;28;20048;-54
2023/10/04 07:25:28;;;;;;;8.45;2.80;;;;;;;11.73;100.00;101563.88;5063376;28;20695;-53
2023/10/04 07:27:55;;;;;;;6.72;2.50;;;;;;;11.84;100.00;101561.06;5061890;28;20033;-49
2023/10/04 07:30:22;;;;;;;4.47;2.50;;;;;;;11.97;100.00;101568.69;5061397;28;20028;-49
2023/10/04 07:32:48;;;;;;;4.47;2.45;;;;;;;12.08;100.00;101569.34;5063097;28;20517;-49
2023/10/04 07:35:20;;;;;;;6.32;2.60;;;;;;;12.25;100.00;101569.47;5061395;28;20487;-51
2023/10/04 07:37:46;;;;;;;3.75;2.30;;;;;;;12.34;100.00;101565.91;5060943;28;20033;-49
2023/10/04 07:40:14;;;;;;;4.68;2.08;;;;;;;12.44;100.00;101567.50;5062481;28;20033;-50
2023/10/04 07:42:41;;;;;;;5.30;2.15;;;;;;;12.61;100.00;101573.84;5062307;28;20492;-49
2023/10/04 07:45:07;;;;;;;4.95;2.08;;;;;;;12.70;100.00;101580.91;5060166;28;20384;-51
2023/10/04 07:47:37;;;;;;;5.43;2.42;;;;;;;12.78;100.00;101580.16;5052270;28;20043;-49
2023/10/04 07:50:09;;;;;;;3.97;1.98;;;;;;;12.87;100.00;101576.56;5052117;28;20448;-47
2023/10/04 07:52:37;;;;;;;5.28;2.25;;;;;;;12.96;100.00;101577.44;5059572;28;20119;-61
2023/10/04 07:55:05;;;;;;;;;;;;;;;13.03;100.00;101579.31;5072172;28;20067;-58
2023/10/04 07:57:37;;;;;;;4.68;2.33;;;;;;;13.18;100.00;101582.28;5072018;28;19917;-58
2023/10/04 08:00:11;;;;;;;2.55;1.67;;;;;;;13.36;100.00;101595.59;5072104;28;20052;-62
2023/10/04 08:02:37;;;;;;;3.45;1.92;;;;;;;13.45;100.00;101588.47;5071999;28;20126;-58
2023/10/04 08:05:06;;;;;;;4.32;1.65;;;;;;;13.57;100.00;101581.84;5071930;28;20060;-58
2023/10/04 08:07:32;;;;;;;4.97;1.80;;;;;;;13.66;100.00;101585.41;5071932;28;20457;-60
2023/10/04 08:09:58;;;;;;;2.70;1.80;;;;;;;13.77;100.00;101588.63;5071969;28;20028;-55
2023/10/04 08:12:26;;;;;;;3.40;1.48;;;;;;;13.81;100.00;101595.31;5071879;28;20376;-58
2023/10/04 08:14:56;;;;;;;2.58;1.70;;;;;;;13.96;100.00;101602.75;5071659;28;20123;-59
2023/10/04 08:17:23;;;;;;;3.90;2.00;;;;;;;13.91;100.00;101584.50;5071964;28;20051;-60
2023/10/04 08:19:49;;;;;;;2.80;1.40;;;;;;;13.98;100.00;101593.56;5071931;28;20037;-60
2023/10/04 08:22:15;;;;;;;4.80;1.98;;;;;;;14.06;100.00;101595.41;5071693;28;20032;-60
2023/10/04 08:24:41;;;;;;;4.07;1.63;;;;;;;14.11;100.00;101595.75;5071551;28;20207;-59
2023/10/04 08:27:06;;;;;;;2.25;1.63;;;;;;;14.14;100.00;101590.06;5071704;28;20477;-60
2023/10/04 08:29:34;;;;;;;3.05;1.73;;;;;;;14.17;100.00;101580.88;5071766;28;20028;-60
2023/10/04 08:31:59;;;;;;;;;;;;;;;14.19;100.00;101587.75;5072129;28;20040;-61
2023/10/04 08:34:25;;;;;;;4.05;1.58;;;;;;;14.28;100.00;101591.25;5071542;28;19969;-60
2023/10/04 08:36:51;;;;;;;3.70;1.67;;;;;;;14.36;100.00;101592.13;5071486;28;20040;-60
2023/10/04 08:39:16;;;;;;;3.28;1.88;;;;;;;14.58;100.00;101587.16;5071724;28;20038;-59
2023/10/04 08:41:42;;;;;;;3.75;1.75;;;;;;;14.64;100.00;101573.91;5071710;28;20033;-59
2023/10/04 08:44:07;;;;;;;3.88;1.98;;;;;;;14.74;100.00;101572.94;5071462;28;20044;-59
2023/10/04 08:46:36;;;;;;;4.05;1.77;;;;;;;14.79;100.00;101571.38;5071554;28;20039;-61
2023/10/04 08:49:07;;;;;;;7.55;1.73;;;;;;;14.80;100.00;101573.09;5071476;28;20380;-60
2023/10/04 08:51:45;;;;;;;4.57;1.90;;;;;;;14.89;100.00;101572.06;5071508;28;20033;-59
2023/10/04 08:54:13;;;;;;;3.50;2.05;;;;;;;14.91;100.00;101572.72;5071290;28;20032;-60
2023/10/04 08:57:14;;;;;;;7.00;1.98;;;;;;;15.03;100.00;101575.06;5071152;28;20535;-59
2023/10/04 08:59:41;;;;;;;3.60;1.85;;;;;;;15.15;99.73;101574.53;5071516;28;20047;-59
2023/10/04 09:02:10;;;;;;;;;;;;;;;15.20;98.25;101571.34;5071910;28;20447;-60
2023/10/04 09:04:36;;;;;;;3.13;1.50;;;;;;;15.32;96.20;101577.16;5071149;28;19969;-60
2023/10/04 09:07:02;;;;;;;4.63;1.70;;;;;;;15.38;95.13;101563.88;5071235;28;20145;-60
2023/10/04 09:09:31;;;;;;;6.38;1.70;;;;;;;15.49;95.04;101570.75;5075200;28;20036;-57
2023/10/04 09:11:57;;;;;;;4.82;2.00;;;;;;;15.64;95.77;101563.66;5075170;28;20094;-60
2023/10/04 09:14:25;;;;;;;1.83;1.48;;;;;;;15.72;95.31;101569.00;5074875;28;20082;-59
2023/10/04 09:17:14;;;;;;;3.65;1.83;;;;;;;15.72;94.61;101574.38;5074925;28;20039;-60
2023/10/04 09:19:40;;;;;;;3.70;1.70;;;;;;;15.73;93.66;101564.47;5075005;28;20036;-61
2023/10/04 09:22:07;;;;;;;3.65;1.58;;;;;;;15.84;93.20;101564.06;5074778;28;20029;-61
2023/10/04 09:24:35;;;;;;;2.73;1.63;;;;;;;15.93;91.43;101565.72;5074904;28;20036;-61
2023/10/04 09:27:01;;;;;;;4.55;1.40;;;;;;;16.22;89.49;101561.50;5074779;28;20123;-59
2023/10/04 09:29:38;;;;;;;3.45;1.70;;;;;;;16.47;89.56;101565.69;5075007;28;20486;-60
2023/10/04 09:32:05;;;;;;;4.20;2.63;;;;;;;16.65;85.14;101560.00;5074831;28;20066;-61
2023/10/04 09:34:33;;;;;;;6.60;2.10;;;;;;;16.63;88.78;101561.22;5074603;28;20298;-60
2023/10/04 09:36:58;;;;;;;;;;;;;;;16.74;88.50;101552.72;5075192;28;20294;-61
2023/10/04 09:39:27;;;;;;;5.15;2.03;;;;;;;17.16;84.12;101552.13;5073650;28;19966;-61
2023/10/04 09:41:55;;;;;;;3.45;1.55;;;;;;;17.67;82.29;101548.66;5074705;28;20484;-61
2023/10/04 09:44:26;;;;;;;4.47;1.90;;;;;;;17.89;78.14;101545.03;5074386;28;20522;-61
2023/10/04 09:47:01;;;;;;;3.75;1.65;;;;;;;18.28;75.09;101552.72;5074447;28;20051;-60
2023/10/04 09:49:31;;;;;;;4.25;1.50;;;;;;;18.59;74.29;101559.66;5074539;28;20032;-61
2023/10/04 09:52:00;;;;;;;2.72;1.42;;;;;;;19.17;67.20;101549.50;5074445;28;20046;-60
2023/10/04 09:54:30;;;;;;;3.85;1.50;;;;;;;19.48;70.55;101547.19;5074232;28;20548;-61
2023/10/04 09:56:57;;;;;;;3.63;1.45;;;;;;;19.83;66.35;101552.59;5074191;28;20037;-61
2023/10/04 09:59:23;;;;;;;3.20;1.92;;;;;;;20.13;63.10;101558.47;5074422;28;20502;-59
2023/10/04 10:01:54;;;;;;;3.53;1.25;;;;;;;20.64;60.09;101555.25;5074350;28;20454;-60
2023/10/04 10:04:26;;;;;;;2.10;1.20;;;;;;;20.73;57.96;101554.00;5074032;28;20056;-60
2023/10/04 10:07:16;;;;;;;2.25;1.13;;;;;;;21.21;60.84;101551.03;5063475;28;20044;-61
2023/10/04 10:10:01;;;;;;;3.28;1.15;;;;;;;21.59;55.22;101540.31;5062200;28;20493;-61
2023/10/04 10:12:29;;;;;;;3.38;1.27;;;;;;;21.57;53.93;101553.22;5062870;28;20040;-60
2023/10/04 10:14:56;;;;;;;3.67;1.30;;;;;;;21.49;53.77;101550.78;5061879;28;20040;-60
2023/10/04 10:17:22;;;;;;;4.23;1.97;;;;;;;21.30;54.60;101554.38;5062721;28;20514;-57
2023/10/04 10:19:50;;;;;;;3.00;1.35;;;;;;;21.74;52.41;101553.59;5064336;28;20143;-61
2023/10/04 10:22:16;;;;;;;1.95;1.00;;;;;;;21.88;54.14;101557.91;5062179;28;20032;-61
2023/10/04 10:25:16;;;;;;;2.70;1.05;;;;;;;22.44;49.58;101554.47;5062229;28;20098;-59
2023/10/04 10:27:43;;;;;;;3.10;1.35;;;;;;;22.76;50.25;101551.72;5065044;28;20068;-60
2023/10/04 10:30:09;;;;;;;4.38;1.13;;;;;;;23.28;48.37;101552.28;5072455;28;20036;-62
2023/10/04 10:32:34;;;;;;;2.03;1.13;;;;;;;23.81;47.15;101543.50;5073559;28;20044;-62
2023/10/04 10:35:05;;;;;;;3.72;1.20;;;;;;;24.46;46.06;101538.19;5073356;28;20158;-62
2023/10/04 10:37:40;;;;;;;2.25;1.00;;;;;;;24.50;44.56;101533.09;5070431;28;20105;-62
2023/10/04 10:40:26;;;;;;;1.65;0.90;;;;;;;24.27;43.17;101536.56;5073470;28;20036;-62
2023/10/04 10:43:10;;;;;;;1.20;0.77;;;;;;;24.15;44.83;101535.72;5073362;28;20037;-62
2023/10/04 10:45:36;;;;;;;1.65;0.82;;;;;;;24.72;41.89;101527.91;5073368;28;20043;-63
2023/10/04 10:48:02;;;;;;;1.92;0.77;;;;;;;25.79;40.04;101522.09;5073361;28;20025;-63
2023/10/04 10:50:40;;;;;;;2.28;1.10;;;;;;;25.15;41.93;101520.19;5073198;28;20028;-63
2023/10/04 10:53:09;;;;;;;2.97;1.20;;;;;;;25.88;40.26;101513.25;5072893;28;20040;-63
2023/10/04 10:55:35;;;;;;;3.63;1.23;;;;;;;25.79;40.22;101512.00;5073154;28;20045;-63
2023/10/04 10:58:01;;;;;;;3.22;1.10;;;;;;;26.59;38.38;101519.16;5073085;28;20548;-63
2023/10/04 11:00:32;;;;;;;2.42;0.77;;;;;;;26.54;37.78;101516.34;5073162;28;20044;-62
2023/10/04 11:03:01;;;;;;;1.67;0.95;;;;;;;25.96;39.08;101517.50;5072951;28;20056;-63
2023/10/04 11:05:26;;;;;;;2.17;0.90;;;;;;;26.55;38.06;101518.00;5065815;28;20064;-62
2023/10/04 11:07:54;;;;;;;3.70;1.40;;;;;;;26.71;39.20;101514.41;5052886;28;20425;-63
2023/10/04 11:10:23;;;;;;;2.47;0.90;;;;;;;26.89;36.80;101517.97;5052840;28;20043;-63
2023/10/04 11:12:51;;;;;;;3.28;1.20;;;;;;;26.34;36.80;101513.22;5052888;28;20041;-63
2023/10/04 11:15:20;;;;;;;3.55;1.10;;;;;;;25.77;38.41;101508.69;5052571;28;20116;-63
2023/10/04 11:17:46;;;;;;;2.67;1.13;;;;;;;25.64;41.21;101511.69;5052756;28;20041;-63
2023/10/04 11:20:14;;;;;;;1.52;0.80;;;;;;;25.37;39.03;101508.69;5052710;28;20059;-63
2023/10/04 11:22:40;;;;;;;5.57;1.38;;;;;;;24.50;41.29;101511.28;5066522;28;20513;-62
2023/10/04 11:25:11;;;;;;;2.95;1.05;;;;;;;25.68;40.56;101500.00;5072509;28;20028;-62
2023/10/04 11:27:40;;;;;;;2.08;1.33;;;;;;;25.88;38.38;101490.59;5072711;28;20036;-62
2023/10/04 11:30:07;;;;;;;1.40;0.80;;;;;;;25.87;38.15;101492.50;5072264;28;20387;-62
2023/10/04 11:32:32;;;;;;;2.97;0.85;;;;;;;26.33;36.33;101489.72;5072374;28;20033;-63
2023/10/04 11:35:07;;;;;;;1.50;0.93;;;;;;;25.34;38.73;101490.06;5072162;28;20048;-63
2023/10/04 11:37:33;;;;;;;3.17;1.15;;;;;;;26.10;37.20;101475.16;5072465;28;20037;-62
2023/10/04 11:39:59;;;;;;;2.88;1.10;;;;;;;25.19;38.00;101476.13;5072364;28;20082;-63
2023/10/04 11:42:25;;;;;;;2.13;0.98;;;;;;;24.44;40.64;101474.94;5072480;28;20457;-63
2023/10/04 11:44:50;;;;;;;2.47;0.80;;;;;;;25.23;38.34;101463.66;5072242;28;20040;-63
2023/10/04 11:47:32;;;;;;;3.13;0.90;;;;;;;25.50;38.37;101470.22;5072162;28;20039;-64
2023/10/04 11:49:59;;;;;;;2.05;1.00;;;;;;;25.80;37.05;101463.69;5072276;28;20032;-62
2023/10/04 11:52:31;;;;;;;;;;;;;;;25.59;37.71;101463.28;5062434;28;20410;-61
2023/10/04 11:54:58;;;;;;;2.55;1.08;;;;;;;24.61;40.60;101461.47;5062031;28;19955;-62
2023/10/04 11:57:28;;;;;;;3.42;0.95;;;;;;;23.79;40.42;101447.69;5060891;28;20060;-61
2023/10/04 11:59:58;;;;;;;2.28;1.20;;;;;;;24.22;40.73;101443.88;5057321;28;20496;-61
2023/10/04 12:02:25;;;;;;;2.05;1.00;;;;;;;24.77;40.47;101433.47;5056652;28;20028;-62
2023/10/04 12:04:51;;;;;;;3.03;1.00;;;;;;;25.38;38.58;101433.97;5060356;28;20028;-62
2023/10/04 12:07:17;;;;;;;2.65;0.95;;;;;;;26.18;36.89;101439.25;5052013;28;20098;-62
2023/10/04 12:09:43;;;;;;;2.78;1.05;;;;;;;26.37;37.84;101434.38;5052097;28;20511;-62
2023/10/04 12:12:08;;;;;;;2.42;1.02;;;;;;;26.44;38.12;101437.78;5052087;28;20456;-62
2023/10/04 12:14:34;;;;;;;2.80;1.02;;;;;;;26.95;36.00;101432.22;5051712;28;20246;-63
2023/10/04 12:17:04;;;;;;;3.17;0.95;;;;;;;27.20;35.09;101418.06;5051816;28;20127;-63
2023/10/04 12:19:31;;;;;;;2.67;1.10;;;;;;;26.93;35.78;101420.69;5052061;28;20519;-63
2023/10/04 12:21:59;;;;;;;2.33;1.15;;;;;;;27.12;35.82;101413.84;5051779;28;20029;-63
2023/10/04 12:24:26;;;;;;;3.33;0.90;;;;;;;27.52;35.31;101415.41;5051520;28;20080;-62
2023/10/04 12:26:55;;;;;;;1.83;1.08;;;;;;;27.93;35.57;101404.88;5051652;28;20094;-63
2023/10/04 12:29:21;;;;;;;2.17;1.08;;;;;;;27.74;34.74;101415.38;5051761;28;20594;-63
2023/10/04 12:31:47;;;;;;;2.83;0.90;;;;;;;27.48;35.87;101408.81;5051732;28;20022;-63
2023/10/04 12:34:13;;;;;;;3.33;1.55;;;;;;;26.89;36.65;101411.38;5050198;28;20044;-62
2023/10/04 12:36:39;;;;;;;2.42;1.20;;;;;;;27.08;36.52;101415.47;5051696;28;20033;-63
2023/10/04 12:39:06;;;;;;;3.38;1.00;;;;;;;26.13;37.29;101411.03;5051661;28;20056;-62
2023/10/04 12:41:32;;;;;;;3.20;1.10;;;;;;;26.28;37.68;101400.38;5051614;28;20036;-62
2023/10/04 12:43:58;;;;;;;3.47;1.30;;;;;;;25.36;38.08;101403.38;5068520;28;20186;-62
2023/10/04 12:46:23;;;;;;;2.30;1.10;;;;;;;25.39;38.84;101394.72;5075491;28;20550;-62
2023/10/04 12:48:49;;;;;;;4.95;1.30;;;;;;;26.29;37.99;101403.94;5075751;28;20041;-62
2023/10/04 12:51:14;;;;;;;2.55;1.40;;;;;;;26.05;38.51;101395.91;5075630;28;20048;-62
2023/10/04 12:53:40;;;;;;;2.72;1.00;;;;;;;25.80;39.39;101398.22;5075242;28;20037;-62
2023/10/04 12:56:07;;;;;;;2.67;1.10;;;;;;;25.86;37.74;101406.25;5075270;28;20538;-62
2023/10/04 12:58:33;;;;;;;2.40;1.10;;;;;;;25.32;37.39;101391.31;5066524;28;20032;-62
2023/10/04 13:00:58;;;;;;;3.47;1.10;;;;;;;25.20;36.39;101394.09;5066728;28;20040;-62
2023/10/04 13:03:24;;;;;;;2.95;1.02;;;;;;;25.14;36.06;101389.59;5068098;28;20028;-62
2023/10/04 13:05:49;;;;;;;3.85;1.08;;;;;;;24.72;37.64;101400.69;5063858;28;20484;-62
2023/10/04 13:08:15;;;;;;;3.83;1.10;;;;;;;24.91;36.51;101382.31;5062962;28;20064;-62
2023/10/04 13:10:42;;;;;;;3.72;1.40;;;;;;;25.34;36.33;101386.44;5057431;28;20036;-62
2023/10/04 13:13:08;;;;;;;2.65;1.25;;;;;;;24.54;38.21;101384.50;5054927;28;20048;-62
2023/10/04 13:15:34;;;;;;;4.20;1.33;;;;;;;24.22;38.69;101381.28;5057628;28;20480;-62
2023/10/04 13:18:02;;;;;;;2.28;0.98;;;;;;;24.38;38.17;101377.84;5063033;28;20107;-63
2023/10/04 13:20:28;;;;;;;4.28;1.25;;;;;;;24.16;39.08;101380.31;5063652;28;20090;-63
2023/10/04 13:22:55;;;;;;;2.05;0.90;;;;;;;24.07;39.05;101368.97;5064306;28;20051;-62
2023/10/04 13:25:21;;;;;;;3.53;1.10;;;;;;;23.76;39.32;101361.13;5062769;28;20112;-62
2023/10/04 13:27:46;;;;;;;3.00;1.00;;;;;;;23.55;40.62;101360.56;5062882;28;20037;-62
2023/10/04 13:30:15;;;;;;;4.10;1.00;;;;;;;23.23;40.50;101370.03;5061529;28;20086;-62
2023/10/04 13:32:47;;;;;;;1.88;0.80;;;;;;;23.30;40.00;101359.88;5057934;28;20116;-62
2023/10/04 13:35:18;;;;;;;4.35;1.27;;;;;;;22.56;41.56;101358.25;5060398;28;20041;-56
2023/10/04 13:37:45;;;;;;;2.85;0.90;;;;;;;22.68;40.37;101353.72;5063796;28;20513;-52
2023/10/04 13:40:19;;;;;;;1.95;1.05;;;;;;;22.59;41.32;101350.50;5065319;28;20025;-50
2023/10/04 13:42:52;;;;;;;4.88;1.20;;;;;;;22.34;41.82;101352.44;5064686;28;20071;-52
2023/10/04 13:45:18;;;;;;;3.13;1.08;;;;;;;22.44;40.85;101347.34;5063504;28;20028;-54
2023/10/04 13:47:45;;;;;;;2.80;1.05;;;;;;;22.34;42.47;101352.44;5063843;28;20425;-55
2023/10/04 13:50:11;;;;;;;1.40;0.90;;;;;;;22.28;42.50;101356.06;5065212;28;20128;-55
2023/10/04 13:52:39;;;;;;;2.67;1.05;;;;;;;22.17;42.06;101357.63;5062114;28;20091;-51
2023/10/04 13:55:04;;;;;;;1.92;0.80;;;;;;;21.62;42.62;101355.53;5062810;28;20406;-53
2023/10/04 13:57:30;;;;;;;2.28;1.13;;;;;;;21.49;42.82;101350.19;5064798;28;20044;-52
2023/10/04 13:59:55;;;;;;;2.58;1.00;;;;;;;21.31;43.04;101348.22;5063355;28;20033;-52
2023/10/04 14:02:21;;;;;;;2.45;1.02;;;;;;;21.39;43.06;101342.56;5063778;28;20111;-54
2023/10/04 14:04:47;;;;;;;3.15;1.10;;;;;;;21.76;42.09;101344.56;5064294;28;20041;-55
2023/10/04 14:07:13;;;;;;;50.65;4.43;;;;;;;21.57;43.62;101349.09;5062674;28;20041;-57
2023/10/04 14:09:39;;;;;;;3.20;1.50;;;;;;;21.25;43.72;101349.03;5064068;28;20028;-53
2023/10/04 14:12:05;;;;;;;2.75;1.20;;;;;;;21.21;44.24;101342.41;5063976;28;20073;-53
2023/10/04 14:14:30;;;;;;;4.28;1.10;;;;;;;21.05;42.73;101345.63;5062322;28;20041;-52
2023/10/04 14:16:56;;;;;;;3.67;1.00;;;;;;;20.83;44.54;101354.03;5064178;28;20036;-55
2023/10/04 14:19:23;;;;;;;2.03;0.90;;;;;;;20.69;44.15;101357.84;5063592;28;20041;-55
2023/10/04 14:21:48;;;;;;;3.72;1.30;;;;;;;20.60;45.80;101364.53;5062393;28;20032;-55
2023/10/04 14:24:15;;;;;;;2.63;1.10;;;;;;;20.50;44.30;101350.63;5062289;28;20033;-56
2023/10/04 14:26:41;;;;;;;2.80;1.57;;;;;;;20.45;45.17;101356.66;5063504;28;20033;-57
2023/10/04 14:29:06;;;;;;;2.35;1.02;;;;;;;20.50;45.42;101356.03;5069580;28;20290;-57
2023/10/04 14:31:31;;;;;;;1.20;0.80;;;;;;;20.49;46.65;101355.19;5073721;28;20072;-56
2023/10/04 14:33:57;;;;;;;2.17;1.00;;;;;;;20.60;46.72;101353.69;5073445;28;20051;-55
2023/10/04 14:36:23;;;;;;;3.30;1.60;;;;;;;20.63;46.35;101344.34;5073531;28;20081;-52
2023/10/04 14:38:49;;;;;;;3.53;1.35;;;;;;;20.59;46.92;101335.78;5073536;28;20039;-52
2023/10/04 14:41:15;;;;;;;2.47;1.00;;;;;;;20.59;46.66;101328.50;5073483;28;20029;-54
2023/10/04 14:43:41;;;;;;;3.40;1.20;;;;;;;20.43;47.32;101330.81;5073317;28;20036;-52
2023/10/04 14:46:08;;;;;;;2.83;1.17;;;;;;;20.22;47.05;101326.50;5073384;28;20093;-56
2023/10/04 14:48:33;;;;;;;2.38;1.00;;;;;;;20.27;46.78;101327.50;5069032;28;20032;-52
2023/10/04 14:50:59;;;;;;;2.40;1.13;;;;;;;20.13;47.64;101325.88;5067607;28;20127;-55
2023/10/04 14:53:24;;;;;;;1.92;0.90;;;;;;;20.11;47.76;101319.03;5068015;28;20070;-56
2023/10/04 14:55:52;;;;;;;2.55;1.20;;;;;;;19.87;48.05;101315.06;5073102;28;20430;-56
2023/10/04 14:58:19;;;;;;;1.77;1.00;;;;;;;19.89;48.84;101310.31;5072962;28;20037;-55
2023/10/04 15:00:55;;;;;;;1.95;1.13;;;;;;;19.67;47.82;101321.31;5073178;28;20074;-56
2023/10/04 15:03:21;;;;;;;2.08;1.15;;;;;;;19.62;47.67;101315.69;5072606;28;20381;-54
2023/10/04 15:05:48;;;;;;;3.08;1.45;;;;;;;19.63;49.60;101320.09;5066042;28;20041;-55
2023/10/04 15:08:14;;;;;;;1.35;0.80;;;;;;;19.50;49.03;101312.75;5058307;28;20109;-56
2023/10/04 15:10:42;;;;;;;1.83;0.90;;;;;;;19.50;49.35;101312.75;5052769;28;20071;-55
2023/10/04 15:13:08;;;;;;;4.35;1.10;;;;;;;19.50;49.38;101307.34;5057886;28;20064;-53
2023/10/04 15:15:34;;;;;;;2.25;0.93;;;;;;;19.50;48.97;101301.13;5061422;28;20060;-54
2023/10/04 15:18:00;;;;;;;2.75;0.88;;;;;;;19.49;48.48;101299.44;5072768;28;20028;-52
2023/10/04 15:20:28;;;;;;;2.83;1.10;;;;;;;19.33;50.86;101294.44;5072587;28;20043;-61
2023/10/04 15:22:53;;;;;;;3.28;1.10;;;;;;;19.35;49.12;101308.56;5071791;28;20552;-61
2023/10/04 15:25:19;;;;;;;2.60;1.10;;;;;;;19.31;49.10;101307.34;5072561;28;20036;-60
2023/10/04 15:27:55;;;;;;;2.75;0.93;;;;;;;19.21;49.53;101308.53;5072563;28;20074;-60
2023/10/04 15:30:22;;;;;;;1.83;0.93;;;;;;;19.09;50.29;101306.63;5072500;28;20068;-61
2023/10/04 15:32:51;;;;;;;4.05;1.10;;;;;;;19.24;49.82;101301.91;5065847;28;20032;-62
2023/10/04 15:35:21;;;;;;;2.67;1.23;;;;;;;19.09;49.58;101307.47;5052175;28;20043;-61
2023/10/04 15:37:50;;;;;;;2.20;1.02;;;;;;;19.03;49.42;101310.16;5052377;28;20395;-58
2023/10/04 15:40:17;;;;;;;2.50;0.95;;;;;;;19.05;49.69;101319.72;5071423;28;20141;-60
2023/10/04 15:42:44;;;;;;;5.13;1.20;;;;;;;18.95;50.46;101316.56;5072231;28;20020;-59
2023/10/04 15:45:11;;;;;;;3.20;1.20;;;;;;;18.82;50.75;101308.41;5072089;28;20495;-59
2023/10/04 15:47:40;;;;;;;2.35;1.00;;;;;;;18.77;51.13;101313.59;5072233;28;20514;-58
2023/10/04 15:50:11;;;;;;;3.20;1.27;;;;;;;18.72;52.04;101314.22;5072186;28;20518;-60
2023/10/04 15:52:40;;;;;;;2.33;1.10;;;;;;;18.73;51.07;101317.75;5072065;28;20411;-59